Time;durP1;ratioP1;P1;durP2;ratioP2;P2;SDS_P1;SDS_P2;PMS_P1;PMS_P2;Temp;Humidity;BMP_temperature;BMP_pressure;BME280_temperature;BME280_humidity;BME280_pressure;Samples;Min_cycle;Max_cycle;Signal;HPM_P1;HPM_P2
2022/01/24 08:05:45;;;;;;;6.83;3.27;;;;;;;16.23;47.15;100667.08;1933917;72;28162;-68
2022/01/24 08:08:34;;;;;;;4.47;3.47;;;;;;;16.56;46.65;100664.83;1872418;75;28204;-68
2022/01/24 08:11:22;;;;;;;5.97;3.62;;;;;;;17.27;45.46;100647.85;1902244;75;28064;-71
2022/01/24 08:14:11;;;;;;;6.53;3.22;;;;;;;17.96;44.09;100655.36;1869848;76;28091;-71
2022/01/24 08:17:02;;;;;;;4.28;3.27;;;;;;;18.48;42.91;100651.55;1898665;75;28340;-71
2022/01/24 08:19:50;;;;;;;4.47;3.37;;;;;;;18.87;41.90;100655.01;1880298;75;28244;-71
2022/01/24 08:22:39;;;;;;;4.17;3.12;;;;;;;19.22;40.97;100659.81;1884118;75;28204;-70
2022/01/24 08:25:28;;;;;;;5.30;3.27;;;;;;;19.47;40.24;100663.67;1869711;76;28426;-71
2022/01/24 08:28:17;;;;;;;3.40;2.95;;;;;;;19.68;39.58;100660.56;1897587;75;38378;-71
2022/01/24 08:31:01;;;;;;;4.23;2.87;;;;;;;19.89;39.04;100657.08;1938818;72;27925;-70
2022/01/24 08:33:50;;;;;;;3.73;3.00;;;;;;;19.97;38.60;100653.75;1890368;74;28106;-70
2022/01/24 08:36:38;;;;;;;4.00;3.10;;;;;;;20.07;38.23;100658.06;1899177;75;28087;-72
2022/01/24 08:39:29;;;;;;;5.17;3.17;;;;;;;20.13;37.94;100655.92;1869899;76;28125;-71
2022/01/24 08:46:09;;;;;;;4.28;3.17;;;;;;;20.21;37.42;100649.02;1873761;75;28174;-71
2022/01/24 08:48:07;;;;;;;4.55;3.10;;;;;;;20.24;37.29;100648.64;1887269;75;28151;-71
2022/01/24 08:50:57;;;;;;;4.72;2.92;;;;;;;20.25;37.08;100653.08;1869658;76;28158;-71
2022/01/24 08:53:45;;;;;;;3.80;3.00;;;;;;;20.28;36.97;100656.80;1883054;75;28036;-73
2022/01/24 08:56:35;;;;;;;3.22;2.92;;;;;;;20.31;36.83;100655.88;1894991;75;28198;-73
2022/01/24 08:59:24;;;;;;;4.83;3.40;;;;;;;20.32;36.69;100661.68;1891410;75;28168;-72
2022/01/24 09:02:13;;;;;;;5.03;3.20;;;;;;;20.35;36.61;100662.64;1887669;75;28085;-72
2022/01/24 09:05:01;;;;;;;3.50;3.12;;;;;;;20.36;36.56;100658.03;1881696;75;28000;-72
2022/01/24 09:07:52;;;;;;;3.60;2.90;;;;;;;20.34;36.45;100658.75;1874293;75;28254;-70
2022/01/24 09:10:43;;;;;;;3.47;3.17;;;;;;;20.36;36.38;100660.77;1891937;75;28073;-71
2022/01/24 09:13:32;;;;;;;4.78;3.20;;;;;;;20.36;36.36;100658.89;1885385;75;28203;-71
2022/01/24 09:16:21;;;;;;;3.37;3.00;;;;;;;20.37;36.23;100658.38;1881141;75;28044;-71
2022/01/24 09:19:09;;;;;;;3.10;2.80;;;;;;;20.39;36.19;100658.52;1880626;75;28113;-71
2022/01/24 09:21:58;;;;;;;3.35;3.08;;;;;;;20.37;36.17;100657.86;1880539;75;28190;-71
2022/01/24 09:24:46;;;;;;;3.70;2.67;;;;;;;20.38;36.06;100657.31;1885829;75;28163;-71
2022/01/24 09:27:35;;;;;;;3.00;2.80;;;;;;;20.40;36.06;100658.81;1870311;75;28225;-71
2022/01/24 09:30:24;;;;;;;3.10;2.80;;;;;;;20.35;36.02;100655.81;1896118;74;28123;-71
2022/01/24 09:33:13;;;;;;;3.40;3.10;;;;;;;20.31;35.99;100650.94;1906195;74;28040;-71
2022/01/24 09:36:02;;;;;;;3.72;2.95;;;;;;;20.33;36.00;100652.95;1903592;74;28416;-71
2022/01/24 09:38:51;;;;;;;4.23;3.27;;;;;;;20.35;35.92;100653.63;1894952;74;28101;-71
2022/01/24 09:41:39;;;;;;;3.27;2.97;;;;;;;20.33;35.94;100652.95;1895828;74;28110;-71
2022/01/24 09:44:28;;;;;;;3.40;3.10;;;;;;;20.36;35.84;100649.84;1897674;74;28171;-73
2022/01/24 09:47:18;;;;;;;3.83;3.02;;;;;;;20.34;35.86;100650.05;1898501;74;28058;-71
2022/01/24 09:50:09;;;;;;;3.30;3.10;;;;;;;20.38;35.73;100655.44;1895582;74;28184;-72
2022/01/24 09:52:58;;;;;;;3.87;2.85;;;;;;;20.36;35.70;100652.06;1895728;74;28175;-71
2022/01/24 09:55:48;;;;;;;3.15;2.85;;;;;;;20.32;35.70;100651.27;1898029;74;28117;-72
2022/01/24 09:58:37;;;;;;;3.30;3.00;;;;;;;20.35;35.73;100648.99;1898762;74;28050;-72
2022/01/24 10:01:26;;;;;;;3.30;3.00;;;;;;;20.32;35.67;100653.49;1917757;74;28160;-71
2022/01/24 10:04:18;;;;;;;3.80;3.10;;;;;;;20.32;35.67;100652.64;1893422;74;28206;-71
2022/01/24 10:07:16;;;;;;;3.30;2.70;;;;;;;20.34;35.70;100656.02;1884684;75;28159;-71
2022/01/24 10:10:00;;;;;;;3.20;2.90;;;;;;;20.34;35.59;100652.78;1884835;75;28583;-71
2022/01/24 10:18:44;;;;;;;2.90;2.70;;;;;;;20.28;35.63;100643.16;1842757;77;28259;-73
2022/01/24 10:22:00;;;;;;;2.97;2.77;;;;;;;20.26;35.66;100640.59;1839664;77;28349;-71
2022/01/24 10:24:56;;;;;;;4.30;2.73;;;;;;;20.26;35.64;100641.96;1824961;78;28292;-71
2022/01/24 10:27:43;;;;;;;3.10;2.90;;;;;;;20.25;35.64;100640.80;1836887;77;28301;-72
2022/01/24 10:30:33;;;;;;;3.12;2.65;;;;;;;20.25;35.64;100638.07;1848970;77;28304;-73
2022/01/24 10:33:22;;;;;;;3.83;2.85;;;;;;;20.25;35.58;100633.98;1864314;76;28082;-71
2022/01/24 10:36:10;;;;;;;3.10;2.80;;;;;;;20.23;35.62;100633.33;1840810;77;28237;-71
2022/01/24 10:39:14;;;;;;;4.20;2.80;;;;;;;20.24;35.60;100638.58;1831662;77;33156;-71
2022/01/24 10:45:25;;;;;;;4.25;3.20;;;;;;;20.20;35.61;100633.16;1816415;76;28734;-72
2022/01/24 10:48:14;;;;;;;3.02;2.80;;;;;;;20.18;35.63;100627.05;1839939;76;28430;-71
2022/01/24 10:51:14;;;;;;;3.00;2.70;;;;;;;20.18;35.65;100620.74;1851588;77;28284;-72
2022/01/24 10:54:04;;;;;;;3.10;2.80;;;;;;;20.24;35.64;100626.31;1842135;77;28203;-71
2022/01/24 10:56:54;;;;;;;3.33;2.70;;;;;;;20.26;35.52;100620.65;1896815;74;28064;-72
2022/01/24 10:59:42;;;;;;;2.80;2.60;;;;;;;20.25;35.50;100630.73;1895574;74;28108;-71
2022/01/24 11:02:42;;;;;;;2.85;2.65;;;;;;;20.27;35.49;100623.20;1895360;74;28191;-71
2022/01/24 11:05:39;;;;;;;3.00;2.80;;;;;;;20.26;35.45;100616.55;1898080;74;28188;-71
2022/01/24 11:08:30;;;;;;;2.80;2.60;;;;;;;20.24;35.50;100613.17;1884766;75;28226;-71
2022/01/24 11:11:18;;;;;;;3.33;2.73;;;;;;;20.25;35.50;100604.82;1916870;74;28071;-71
2022/01/24 11:14:09;;;;;;;3.15;2.90;;;;;;;20.25;35.43;100599.87;1895593;74;28138;-71
2022/01/24 11:16:59;;;;;;;3.22;2.92;;;;;;;20.27;35.42;100601.38;1896470;74;28167;-71
2022/01/24 11:19:56;;;;;;;2.73;2.53;;;;;;;20.26;35.42;100594.22;1900603;74;28097;-71
2022/01/24 11:22:44;;;;;;;3.45;2.65;;;;;;;20.24;35.42;100596.30;1918106;74;28106;-71
2022/01/24 11:25:37;;;;;;;3.17;2.98;;;;;;;20.22;35.42;100591.55;1895444;74;28063;-71
2022/01/24 11:28:26;;;;;;;3.37;2.70;;;;;;;20.24;35.36;100592.20;1895508;74;28163;-71
2022/01/24 11:31:29;;;;;;;2.70;2.50;;;;;;;20.24;35.38;100584.53;1900802;74;28240;-71
2022/01/24 11:34:30;;;;;;;2.80;2.60;;;;;;;20.23;35.36;100579.62;1898992;74;28096;-72
2022/01/24 11:37:36;;;;;;;2.70;2.50;;;;;;;20.21;35.37;100576.17;1885969;74;28203;-71
2022/01/24 11:40:26;;;;;;;2.70;2.50;;;;;;;20.24;35.38;100574.98;1884688;75;28183;-71
2022/01/24 11:43:32;;;;;;;3.55;2.58;;;;;;;20.19;35.37;100579.63;1910519;74;28043;-71
2022/01/24 11:46:45;;;;;;;3.10;2.90;;;;;;;20.22;35.35;100569.73;1878337;74;28233;-71
2022/01/24 11:49:36;;;;;;;3.10;2.45;;;;;;;20.21;35.42;100569.36;1906484;74;28051;-73
2022/01/24 11:52:34;;;;;;;2.98;2.77;;;;;;;20.18;35.39;100564.31;1884773;75;28133;-71
2022/01/24 11:55:37;;;;;;;3.05;2.85;;;;;;;20.17;35.42;100558.52;1899337;74;28047;-73
2022/01/24 11:58:30;;;;;;;2.90;2.70;;;;;;;20.18;35.42;100551.18;1897107;74;28042;-71
2022/01/24 12:01:38;;;;;;;2.90;2.70;;;;;;;20.19;35.37;100552.34;1895722;74;28225;-72
2022/01/24 12:04:49;;;;;;;2.65;2.47;;;;;;;20.17;35.36;100549.48;1895497;74;28034;-71
2022/01/24 12:07:50;;;;;;;2.77;2.58;;;;;;;20.19;35.39;100553.70;1895543;74;28027;-71
2022/01/24 12:10:47;;;;;;;3.40;2.75;;;;;;;20.19;35.33;100535.97;1895844;74;28153;-72
2022/01/24 12:13:55;;;;;;;2.90;2.55;;;;;;;20.17;35.33;100536.69;1897606;74;28262;-71
2022/01/24 12:16:45;;;;;;;2.90;2.70;;;;;;;20.12;35.34;100532.33;1903879;74;28051;-71
2022/01/24 12:19:35;;;;;;;3.20;2.90;;;;;;;20.18;35.29;100528.84;1884699;75;28175;-71
2022/01/24 12:22:39;;;;;;;2.37;2.27;;;;;;;20.16;35.35;100528.20;1896046;74;28224;-71
2022/01/24 12:26:05;;;;;;;2.72;2.42;;;;;;;20.18;35.30;100526.13;1874017;75;28297;-71
2022/01/24 12:29:05;;;;;;;2.80;2.60;;;;;;;20.19;35.28;100514.15;1874215;75;28207;-71
2022/01/24 12:32:03;;;;;;;2.85;2.52;;;;;;;20.14;35.29;100509.79;1873969;75;28349;-71
2022/01/24 12:34:47;;;;;;;2.72;2.52;;;;;;;20.15;35.29;100499.73;1779074;79;28549;-71
2022/01/24 12:37:36;;;;;;;2.75;2.55;;;;;;;20.16;35.33;100500.06;1777529;79;28263;-72
2022/01/24 12:40:28;;;;;;;3.47;2.60;;;;;;;20.16;35.24;100495.47;1848075;77;38449;-72
2022/01/24 12:43:29;;;;;;;3.10;2.80;;;;;;;20.15;35.24;100490.19;1847990;76;28269;-71
2022/01/24 12:46:20;;;;;;;2.80;2.60;;;;;;;20.15;35.24;100486.09;1839193;77;28316;-72
2022/01/24 12:49:09;;;;;;;2.75;2.55;;;;;;;20.14;35.28;100487.97;1842160;77;28216;-71
2022/01/24 12:52:03;;;;;;;2.70;2.50;;;;;;;20.12;35.31;100483.23;1836984;77;28161;-71
2022/01/24 12:54:54;;;;;;;2.90;2.65;;;;;;;20.13;35.26;100479.48;1836481;77;28203;-71
2022/01/24 12:57:44;;;;;;;2.70;2.50;;;;;;;20.13;35.31;100467.72;1834828;77;28203;-71
2022/01/24 13:00:32;;;;;;;2.80;2.60;;;;;;;20.17;35.25;100471.22;1825316;78;28246;-71
2022/01/24 13:03:22;;;;;;;2.60;2.40;;;;;;;20.22;35.22;100475.61;1849185;76;28197;-70
2022/01/24 13:06:18;;;;;;;3.20;2.58;;;;;;;20.18;35.15;100469.34;1841366;76;28219;-71
2022/01/24 13:09:16;;;;;;;2.60;2.40;;;;;;;20.15;35.17;100466.48;1846736;77;28168;-71
2022/01/24 13:12:09;;;;;;;2.75;2.55;;;;;;;20.15;35.18;100461.03;1845940;77;28217;-70
2022/01/24 13:15:02;;;;;;;2.75;2.55;;;;;;;20.14;35.19;100459.33;1842148;77;28282;-71
2022/01/24 13:21:08;;;;;;;2.70;2.50;;;;;;;20.17;35.13;100454.86;1847626;76;28679;-71
2022/01/24 13:23:57;;;;;;;2.67;2.47;;;;;;;20.14;35.19;100451.14;1847913;76;28242;-70
2022/01/24 13:26:45;;;;;;;2.80;2.60;;;;;;;20.17;35.19;100449.91;1857166;77;28235;-71
2022/01/24 13:29:40;;;;;;;2.62;2.42;;;;;;;20.14;35.16;100441.59;1840659;77;28121;-71
2022/01/24 13:32:48;;;;;;;3.00;2.80;;;;;;;20.19;35.16;100445.95;1837046;77;28121;-71
2022/01/24 13:35:42;;;;;;;2.55;2.35;;;;;;;20.15;35.14;100442.45;1836581;77;28181;-71
2022/01/24 13:38:34;;;;;;;2.45;2.27;;;;;;;20.14;35.18;100442.96;1852346;77;28229;-71
2022/01/24 13:41:27;;;;;;;2.27;2.17;;;;;;;20.10;35.18;100444.41;1846493;77;28153;-71
2022/01/24 13:44:15;;;;;;;2.40;2.30;;;;;;;20.12;35.18;100446.41;1841923;77;28164;-71
2022/01/24 13:47:11;;;;;;;2.80;2.60;;;;;;;20.13;35.16;100430.37;1847039;77;28258;-70
2022/01/24 13:49:59;;;;;;;2.58;2.37;;;;;;;20.14;35.18;100427.14;1858316;76;28277;-70
2022/01/24 13:52:51;;;;;;;2.35;2.25;;;;;;;20.17;35.13;100428.94;1847021;77;28153;-71
2022/01/24 13:55:41;;;;;;;2.70;2.50;;;;;;;20.16;35.11;100420.45;1854877;76;28192;-73
2022/01/24 13:58:29;;;;;;;2.58;2.37;;;;;;;20.15;35.13;100416.02;1873278;76;28160;-71
2022/01/24 14:01:18;;;;;;;2.45;2.25;;;;;;;20.16;35.12;100415.00;1848083;76;28145;-71
2022/01/24 14:04:09;;;;;;;2.47;2.20;;;;;;;20.16;35.11;100416.36;1847561;76;28196;-71
2022/01/24 14:07:04;;;;;;;2.20;2.10;;;;;;;20.18;35.10;100418.88;1854762;76;28263;-71
2022/01/24 14:10:00;;;;;;;2.30;2.20;;;;;;;20.15;35.07;100415.17;1872911;76;28242;-72
2022/01/24 14:12:52;;;;;;;2.58;2.37;;;;;;;20.11;35.14;100416.61;1848465;77;28263;-71
2022/01/24 14:15:55;;;;;;;2.23;2.13;;;;;;;20.09;35.17;100418.19;1837826;76;28401;-71
2022/01/24 14:18:37;;;;;;;2.47;2.30;;;;;;;20.10;35.15;100416.27;1868643;76;28202;-72
2022/01/24 14:21:26;;;;;;;2.40;2.30;;;;;;;20.10;35.15;100420.36;1836891;77;28245;-71
2022/01/24 14:24:14;;;;;;;2.40;2.20;;;;;;;20.12;35.16;100423.77;1835572;77;28231;-72
2022/01/24 14:27:03;;;;;;;2.50;2.22;;;;;;;20.11;35.15;100429.73;1836370;77;28185;-71
2022/01/24 14:29:51;;;;;;;2.30;2.20;;;;;;;20.09;35.14;100424.15;1837517;77;28324;-71
2022/01/24 14:32:48;;;;;;;2.30;2.20;;;;;;;20.14;35.14;100424.41;1826432;78;28183;-71
2022/01/24 14:35:37;;;;;;;2.53;2.33;;;;;;;20.13;35.13;100430.37;1865844;75;28286;-71
2022/01/24 14:38:39;;;;;;;2.40;2.20;;;;;;;20.08;35.16;100423.30;1836302;77;28193;-73
2022/01/24 14:41:46;;;;;;;2.70;2.50;;;;;;;20.06;35.18;100421.30;1804317;78;28408;-72
2022/01/24 14:47:37;;;;;;;2.20;2.10;;;;;;;20.08;35.20;100423.81;1799706;78;28473;-71
2022/01/24 14:50:25;;;;;;;2.30;2.10;;;;;;;20.04;35.23;100428.83;1824320;77;28305;-71
2022/01/24 14:53:16;;;;;;;2.20;2.10;;;;;;;20.03;35.22;100432.58;1798078;78;28492;-71
2022/01/24 14:56:03;;;;;;;2.35;2.22;;;;;;;20.06;35.24;100429.98;1816202;78;28348;-71
2022/01/24 14:58:53;;;;;;;2.35;2.15;;;;;;;20.05;35.26;100437.86;1808575;78;28376;-71
2022/01/24 15:01:42;;;;;;;2.10;2.00;;;;;;;20.06;35.23;100439.53;1793371;78;28267;-71
2022/01/24 15:04:31;;;;;;;2.33;2.20;;;;;;;20.05;35.21;100438.68;1791161;78;28335;-71
2022/01/24 15:07:20;;;;;;;2.20;2.10;;;;;;;20.06;35.21;100434.92;1804518;78;28366;-71
2022/01/24 15:10:08;;;;;;;2.37;2.27;;;;;;;20.08;35.19;100437.45;1795073;79;28408;-71
2022/01/24 15:13:03;;;;;;;2.20;2.10;;;;;;;20.07;35.15;100439.87;1814689;78;28385;-71
2022/01/24 15:15:56;;;;;;;2.08;1.98;;;;;;;20.08;35.14;100438.81;1815222;78;28472;-71
2022/01/24 15:27:59;;;;;;;2.20;2.10;;;;;;;20.00;35.16;100435.17;1868487;75;28124;-71
2022/01/24 15:30:47;;;;;;;2.33;2.20;;;;;;;20.03;35.18;100438.55;1852773;75;28326;-71
2022/01/24 15:33:36;;;;;;;2.20;2.10;;;;;;;20.01;35.18;100431.94;1874323;75;30159;-73
2022/01/24 15:36:24;;;;;;;2.30;2.10;;;;;;;20.00;35.17;100434.33;1781319;80;28450;-71
2022/01/24 15:39:13;;;;;;;2.57;2.20;;;;;;;20.00;35.21;100432.97;1792312;79;28311;-72
2022/01/24 15:42:10;;;;;;;2.22;2.10;;;;;;;20.03;35.19;100434.45;1822282;77;28211;-73
2022/01/24 15:47:48;;;;;;;2.20;2.10;;;;;;;20.10;35.06;100437.58;1805611;78;28415;-72
2022/01/24 15:50:39;;;;;;;2.27;2.17;;;;;;;20.08;35.07;100438.81;1803616;78;28315;-72
2022/01/24 15:53:29;;;;;;;2.60;2.40;;;;;;;20.07;35.03;100435.78;1836362;77;28309;-73
2022/01/24 15:59:07;;;;;;;2.27;2.10;;;;;;;20.03;35.10;100439.91;1806483;78;28342;-73
2022/01/24 16:01:55;;;;;;;2.22;2.12;;;;;;;20.03;35.11;100443.48;1794643;78;33636;-72
2022/01/24 16:04:44;;;;;;;2.00;1.90;;;;;;;20.00;35.12;100443.87;1802367;78;28335;-72
2022/01/24 16:07:33;;;;;;;1.95;1.85;;;;;;;20.04;35.13;100447.92;1823103;77;28284;-72
2022/01/24 16:10:25;;;;;;;2.20;2.10;;;;;;;20.01;35.10;100445.58;1807953;78;28363;-72
2022/01/24 16:13:14;;;;;;;2.03;1.93;;;;;;;20.01;35.08;100445.58;1802743;78;28362;-72
2022/01/24 16:16:04;;;;;;;2.00;1.90;;;;;;;20.02;35.12;100451.37;1810154;78;28406;-71
2022/01/24 16:18:52;;;;;;;2.10;2.00;;;;;;;20.04;35.09;100453.89;1811121;78;32276;-72
2022/01/24 16:21:46;;;;;;;2.10;2.00;;;;;;;20.04;35.05;100459.34;1831291;78;28309;-71
2022/01/24 16:27:21;;;;;;;2.10;2.00;;;;;;;20.03;35.09;100468.55;1811002;78;28344;-71
2022/01/24 16:30:12;;;;;;;2.10;2.00;;;;;;;20.04;35.05;100471.61;1829469;78;28343;-71
2022/01/24 16:33:03;;;;;;;2.10;2.00;;;;;;;19.99;35.06;100478.50;1818206;78;28317;-71
2022/01/24 16:35:55;;;;;;;2.10;2.00;;;;;;;19.99;35.06;100481.74;1803330;78;28335;-71
2022/01/24 16:38:47;;;;;;;2.05;1.95;;;;;;;20.00;35.05;100486.14;1817021;78;28418;-71
2022/01/24 16:41:49;;;;;;;2.30;2.15;;;;;;;20.04;35.03;100488.83;1795993;78;28537;-72
2022/01/24 16:47:26;;;;;;;1.87;1.77;;;;;;;20.02;35.01;100496.36;1797832;78;28302;-72
2022/01/24 16:50:14;;;;;;;2.00;1.90;;;;;;;20.00;35.02;100497.90;1795690;78;28313;-72
2022/01/24 16:53:02;;;;;;;2.10;1.92;;;;;;;19.99;35.05;100507.66;1796208;78;28355;-72
2022/01/24 16:55:53;;;;;;;2.05;1.95;;;;;;;19.97;35.05;100513.82;1838246;77;28302;-72
2022/01/24 16:58:42;;;;;;;2.00;1.90;;;;;;;19.99;35.07;100510.38;1839971;77;28192;-72
2022/01/24 17:01:32;;;;;;;2.20;2.00;;;;;;;19.97;35.07;100519.27;1836439;77;28192;-72
2022/01/24 17:04:22;;;;;;;2.30;2.10;;;;;;;19.97;35.06;100524.73;1836262;77;28258;-72
2022/01/24 17:07:10;;;;;;;2.15;2.00;;;;;;;20.03;34.97;100528.03;1839477;77;28266;-72
2022/01/24 17:09:59;;;;;;;2.50;1.90;;;;;;;20.04;34.93;100527.52;1838229;77;28150;-72
2022/01/24 17:12:49;;;;;;;1.93;1.83;;;;;;;20.03;35.00;100532.13;1851417;77;28243;-72
2022/01/24 17:15:45;;;;;;;1.92;1.82;;;;;;;20.05;34.90;100537.41;1858664;76;28187;-72
2022/01/24 17:18:31;;;;;;;2.05;1.92;;;;;;;20.05;34.90;100540.14;1826597;78;28273;-73
2022/01/24 17:21:20;;;;;;;1.90;1.80;;;;;;;20.02;34.90;100540.00;1837636;77;28109;-72
2022/01/24 17:24:09;;;;;;;1.90;1.80;;;;;;;19.97;34.98;100547.91;1848017;76;28574;-71
2022/01/24 17:26:58;;;;;;;2.23;2.03;;;;;;;20.00;34.99;100550.23;1848257;76;28301;-71
2022/01/24 17:29:49;;;;;;;1.90;1.80;;;;;;;19.97;34.97;100547.91;1852976;76;28333;-72
2022/01/24 17:32:38;;;;;;;1.90;1.80;;;;;;;19.95;34.99;100554.08;1837038;77;28156;-73
2022/01/24 17:35:29;;;;;;;1.92;1.82;;;;;;;19.93;35.01;100558.84;1841708;76;28227;-72
2022/01/24 17:38:18;;;;;;;1.95;1.85;;;;;;;19.92;35.04;100556.67;1851343;76;28057;-72
2022/01/24 17:41:06;;;;;;;1.87;1.77;;;;;;;19.97;34.96;100554.73;1851829;76;28255;-71
2022/01/24 17:43:55;;;;;;;2.00;1.90;;;;;;;19.98;34.95;100560.48;1849692;76;28118;-71
2022/01/24 17:46:43;;;;;;;1.90;1.80;;;;;;;20.03;34.91;100562.13;1847901;76;28175;-72
2022/01/24 17:49:32;;;;;;;1.92;1.82;;;;;;;20.00;34.83;100564.72;1847713;76;28223;-71
2022/01/24 17:52:20;;;;;;;2.00;1.90;;;;;;;20.03;34.83;100565.37;1853906;76;28193;-72
2022/01/24 17:55:10;;;;;;;1.90;1.80;;;;;;;20.05;34.79;100566.05;1858771;76;28195;-72
2022/01/24 17:57:58;;;;;;;2.17;2.08;;;;;;;19.98;34.88;100578.22;1858781;76;28265;-71
2022/01/24 18:00:47;;;;;;;2.00;1.80;;;;;;;19.97;34.92;100572.45;1858476;76;28286;-71
2022/01/24 18:03:35;;;;;;;2.05;1.95;;;;;;;19.99;34.82;100573.95;1854395;76;28264;-71
2022/01/24 18:06:28;;;;;;;1.90;1.80;;;;;;;19.99;34.82;100580.77;1858926;76;28223;-71
2022/01/24 18:09:13;;;;;;;1.98;1.87;;;;;;;19.96;34.88;100580.30;1858854;76;28169;-72
2022/01/24 18:12:03;;;;;;;2.10;2.00;;;;;;;19.99;34.85;100589.47;1857679;76;28149;-71
2022/01/24 18:14:52;;;;;;;1.80;1.70;;;;;;;19.95;34.85;100583.53;1872733;76;32034;-72
2022/01/24 18:17:42;;;;;;;2.00;1.90;;;;;;;19.99;34.80;100587.59;1848458;76;38535;-72
2022/01/24 18:20:30;;;;;;;2.05;1.95;;;;;;;20.01;34.76;100591.48;1847942;76;28325;-71
2022/01/24 18:23:19;;;;;;;1.87;1.77;;;;;;;20.00;34.78;100593.35;1869251;76;28149;-71
2022/01/24 18:26:09;;;;;;;1.80;1.70;;;;;;;20.01;34.77;100591.48;1851531;76;28211;-71
2022/01/24 18:28:58;;;;;;;1.98;1.87;;;;;;;20.01;34.70;100594.20;1839644;76;28242;-73
2022/01/24 18:31:46;;;;;;;1.97;1.87;;;;;;;19.98;34.73;100598.16;1861962;76;28118;-72
2022/01/24 18:34:35;;;;;;;2.00;1.90;;;;;;;19.98;34.80;100601.39;1851142;76;28194;-71
2022/01/24 18:37:25;;;;;;;1.90;1.80;;;;;;;19.96;34.79;100607.05;1850693;76;28226;-70
2022/01/24 18:40:14;;;;;;;1.82;1.72;;;;;;;19.94;34.79;100609.13;1840229;76;28245;-72
2022/01/24 18:43:03;;;;;;;2.00;1.90;;;;;;;19.95;34.82;100609.44;1835662;77;28325;-72
2022/01/24 18:45:52;;;;;;;2.00;1.90;;;;;;;19.97;34.79;100614.72;1807524;78;28286;-72
2022/01/24 18:48:40;;;;;;;1.90;1.80;;;;;;;19.96;34.79;100615.23;1787569;79;28333;-71
2022/01/24 18:51:29;;;;;;;1.90;1.80;;;;;;;19.97;34.81;100616.08;1837949;76;28570;-71
2022/01/24 18:54:21;;;;;;;2.00;1.90;;;;;;;19.98;34.73;100613.16;1837281;77;28228;-72
2022/01/24 18:57:08;;;;;;;1.90;1.80;;;;;;;20.00;34.68;100619.77;1837900;77;28203;-71
2022/01/24 18:59:56;;;;;;;2.60;2.40;;;;;;;19.98;34.75;100622.70;1862388;76;28173;-73
2022/01/24 19:02:45;;;;;;;2.33;2.12;;;;;;;19.91;34.61;100621.77;1834732;77;28114;-73
2022/01/24 19:05:33;;;;;;;2.35;2.20;;;;;;;19.96;34.60;100621.20;1833871;76;28267;-68
2022/01/24 19:08:22;;;;;;;2.50;2.40;;;;;;;19.90;34.54;100624.19;1850901;77;28116;-70
2022/01/24 19:11:11;;;;;;;2.33;2.12;;;;;;;19.91;34.61;100625.00;1828804;77;28268;-69
2022/01/24 19:14:00;;;;;;;2.83;2.10;;;;;;;19.92;34.52;100619.89;1835057;77;28265;-69
2022/01/24 19:16:51;;;;;;;2.55;2.17;;;;;;;19.95;34.47;100624.98;1843479;77;28256;-68
2022/01/24 19:19:59;;;;;;;2.25;2.05;;;;;;;19.98;34.50;100624.58;1847033;76;28299;-69
2022/01/24 19:25:34;;;;;;;2.35;2.15;;;;;;;19.95;34.43;100627.70;1829613;77;28207;-67
2022/01/24 19:28:26;;;;;;;2.97;2.40;;;;;;;19.94;34.48;100624.63;1852517;76;28230;-68
2022/01/24 19:31:16;;;;;;;2.50;2.30;;;;;;;19.95;34.46;100624.44;1843957;77;28218;-67
2022/01/24 19:34:05;;;;;;;1.92;1.82;;;;;;;19.96;34.54;100630.23;1848116;76;28188;-68
2022/01/24 19:36:54;;;;;;;2.40;2.20;;;;;;;19.98;34.54;100630.88;1839772;76;28515;-69
2022/01/24 19:39:42;;;;;;;2.20;2.00;;;;;;;19.99;34.55;100628.50;1854676;75;28192;-68
2022/01/24 19:42:31;;;;;;;2.90;2.10;;;;;;;20.05;34.57;100630.14;1814704;77;28271;-68
2022/01/24 19:45:23;;;;;;;2.35;2.15;;;;;;;20.01;34.59;100628.30;1832436;76;28765;-69
2022/01/24 19:48:15;;;;;;;2.00;1.90;;;;;;;20.05;34.62;100634.23;1852886;76;28439;-67
2022/01/24 19:51:06;;;;;;;2.20;2.10;;;;;;;20.05;34.67;100641.87;1838079;76;28712;-68
2022/01/24 19:53:55;;;;;;;2.42;2.22;;;;;;;20.10;34.59;100637.20;1853290;76;28182;-67
2022/01/24 19:56:48;;;;;;;2.20;2.10;;;;;;;20.12;34.64;100634.62;1868374;76;28230;-67
2022/01/24 19:59:56;;;;;;;2.00;1.90;;;;;;;20.11;34.62;100640.28;1834318;76;28794;-67
2022/01/24 20:02:24;;;;;;;2.40;2.20;;;;;;;20.08;34.64;100638.77;1850266;76;28176;-68
2022/01/24 20:05:14;;;;;;;2.10;2.00;;;;;;;20.08;34.67;100643.38;1841893;76;28267;-68
2022/01/24 20:08:03;;;;;;;2.33;2.22;;;;;;;20.10;34.71;100648.12;1852301;76;28485;-68
2022/01/24 20:10:53;;;;;;;4.87;2.43;;;;;;;20.14;34.67;100647.55;1858633;76;28266;-67
2022/01/24 20:13:41;;;;;;;2.10;2.00;;;;;;;20.14;34.66;100648.09;1851732;76;28302;-67
2022/01/24 20:16:30;;;;;;;2.30;2.10;;;;;;;20.10;34.70;100653.58;1866841;76;28146;-67
2022/01/24 20:19:18;;;;;;;2.45;2.25;;;;;;;20.10;34.74;100653.58;1848072;76;28176;-67
2022/01/24 20:22:06;;;;;;;2.40;2.20;;;;;;;20.08;34.74;100660.59;1856867;76;28215;-67
2022/01/24 20:24:55;;;;;;;2.12;2.02;;;;;;;20.06;34.82;100659.94;1850088;76;28138;-67
2022/01/24 20:27:44;;;;;;;2.40;2.20;;;;;;;20.11;34.77;100661.59;1857084;76;28160;-67
2022/01/24 20:30:34;;;;;;;2.23;2.10;;;;;;;20.12;34.70;100661.08;1840359;76;28857;-67
2022/01/24 20:33:24;;;;;;;2.42;2.25;;;;;;;20.10;34.75;100665.34;1863634;76;28196;-68
2022/01/24 20:36:12;;;;;;;2.22;2.12;;;;;;;20.05;34.83;100670.51;1857431;76;28185;-68
2022/01/24 20:39:03;;;;;;;2.40;2.20;;;;;;;20.05;34.89;100663.69;1860779;76;28223;-68
2022/01/24 20:41:52;;;;;;;2.20;2.10;;;;;;;20.02;34.90;100666.82;1863822;75;28351;-67
2022/01/24 20:44:41;;;;;;;2.33;2.22;;;;;;;20.02;34.96;100665.97;1857112;76;28365;-68
2022/01/24 20:47:29;;;;;;;2.20;2.10;;;;;;;20.03;34.94;100672.59;1861551;76;28229;-67
2022/01/24 20:50:24;;;;;;;2.40;2.20;;;;;;;20.03;34.93;100681.28;1853025;76;30240;-67
2022/01/24 20:53:09;;;;;;;2.20;2.00;;;;;;;20.02;34.96;100684.55;1867505;76;28187;-67
2022/01/24 20:55:58;;;;;;;2.60;2.30;;;;;;;20.02;34.96;100687.78;1861849;76;28195;-67
2022/01/24 20:58:46;;;;;;;2.50;2.30;;;;;;;20.03;34.90;100688.95;1859780;76;28222;-69
2022/01/24 21:01:35;;;;;;;2.40;2.30;;;;;;;20.03;34.96;100697.13;1868975;76;28156;-66
2022/01/24 21:04:24;;;;;;;2.77;2.20;;;;;;;20.05;34.90;100699.69;1860826;74;28118;-66
2022/01/24 21:07:12;;;;;;;2.90;2.45;;;;;;;19.99;34.96;100701.28;1853960;76;28190;-68
2022/01/24 21:10:06;;;;;;;2.47;2.27;;;;;;;20.06;35.03;100712.27;1873331;75;28243;-67
2022/01/24 21:13:09;;;;;;;2.37;2.17;;;;;;;20.05;35.16;100705.97;1853143;76;28113;-69
2022/01/24 21:15:48;;;;;;;2.20;2.10;;;;;;;20.10;35.17;100706.25;1851883;76;28229;-70
2022/01/24 21:18:38;;;;;;;2.17;2.08;;;;;;;20.12;35.19;100704.72;1873136;76;28209;-67
2022/01/24 21:21:27;;;;;;;2.60;2.40;;;;;;;20.12;35.20;100712.36;1869863;76;28186;-69
2022/01/24 21:24:16;;;;;;;2.30;2.10;;;;;;;20.17;35.17;100707.70;1856090;76;28270;-66
2022/01/24 21:27:09;;;;;;;2.50;2.20;;;;;;;20.19;35.23;100707.84;1869636;76;28253;-67
2022/01/24 21:29:56;;;;;;;2.40;2.20;;;;;;;20.17;35.23;100707.19;1866148;76;28196;-67
2022/01/24 21:32:45;;;;;;;2.40;2.20;;;;;;;20.19;35.27;100706.47;1870944;76;35108;-66
2022/01/24 21:35:34;;;;;;;3.35;2.42;;;;;;;20.24;35.19;100712.25;1867214;76;28267;-67
2022/01/24 21:38:22;;;;;;;2.50;2.30;;;;;;;20.23;35.22;100709.21;1878311;76;28244;-67
2022/01/24 21:41:13;;;;;;;2.77;2.20;;;;;;;20.26;35.25;100716.14;1851093;76;32237;-68
2022/01/24 21:44:02;;;;;;;2.60;2.40;;;;;;;20.26;35.18;100720.23;1844839;77;28174;-68
2022/01/24 21:46:51;;;;;;;2.37;2.17;;;;;;;20.20;35.21;100722.34;1846042;77;28259;-67
2022/01/24 21:49:39;;;;;;;2.58;2.37;;;;;;;20.20;35.27;100725.06;1851349;76;28637;-68
2022/01/24 21:52:28;;;;;;;2.30;2.20;;;;;;;20.22;35.31;100723.88;1835786;76;28295;-67
2022/01/24 21:55:19;;;;;;;2.20;2.10;;;;;;;20.26;35.22;100727.05;1856929;76;28255;-68
2022/01/24 21:58:08;;;;;;;2.50;2.30;;;;;;;20.17;35.29;100714.52;1847661;77;28656;-66
2022/01/24 22:00:57;;;;;;;2.20;2.08;;;;;;;20.26;35.20;100718.87;1865653;76;28263;-68